F/V Mailys Charlie — FMIW — position and weather

sailwx.info

Track history (hours):
 
Tides and Currents Weather Stations Pressure Air Temp Water Temp Dewpoint Dewpoint Depression Visibility Wind Speed Wind Dir Waves Ship Positions

F/V Mailys Charlie

Last reported at 2016-May-25 15:33 UTC. Time now 2016-May-26 04:47 UTC.
Position N 47°45' W 004°03'.

Length 19 m.

Type: Fishing. MMSI: 228240800.

Date/timePositionNaut miles runAvg speedWind from/ knotsBaromVisibWave heightAir tempDewpointWater temp
2016-May-25 15:33N 47°45' W 004°03'8 7.9
2016-May-25 14:33N 47°51' W 003°56'1 0.2
2016-May-25 11:16N 47°51' W 003°56'36 0.8
2016-May-23 13:04N 47°15' W 003°49'5 7.8
2016-May-23 12:29N 47°15' W 003°43'7 7.7
2016-May-23 11:33N 47°15' W 003°32'8 7.9
2016-May-23 10:34N 47°15' W 003°20'8 8.3
2016-May-23 09:33N 47°15' W 003°08'9 8.7
2016-May-23 08:33N 47°17' W 002°56'9 8.6
2016-May-23 07:34N 47°19' W 002°43'8 8.2
2016-May-23 06:33N 47°20' W 002°31'1 0.6
2016-May-23 05:33N 47°21' W 002°31'0 0.0
2016-May-23 04:33N 47°21' W 002°31'0 0.0
2016-May-23 03:33N 47°21' W 002°31'0 0.0
2016-May-23 02:33N 47°21' W 002°31'0 0.0
2016-May-23 01:34N 47°21' W 002°31'0 0.0
2016-May-23 00:33N 47°21' W 002°31'0 0.0
2016-May-22 23:33N 47°21' W 002°31'0 0.0
2016-May-22 22:33N 47°21' W 002°31'0 0.0
2016-May-22 21:33N 47°21' W 002°31'0 0.0
2016-May-22 20:33N 47°21' W 002°31'0 0.0
2016-May-22 19:33N 47°21' W 002°31'0 0.0
2016-May-22 18:33N 47°21' W 002°31'0 0.0
2016-May-22 17:33N 47°21' W 002°31'0 0.0
2016-May-22 16:33N 47°21' W 002°31'0 0.0
2016-May-22 15:33N 47°21' W 002°31'0 0.0
2016-May-22 14:33N 47°21' W 002°31'0 0.0
2016-May-22 13:33N 47°21' W 002°31'0 0.0
2016-May-22 12:33N 47°21' W 002°31'0 0.0
2016-May-22 11:34N 47°21' W 002°31'0 0.0
2016-May-22 10:33N 47°21' W 002°31'0 0.0
2016-May-22 09:33N 47°21' W 002°31'0 0.0
2016-May-22 08:33N 47°21' W 002°31'0 0.0
2016-May-22 07:27N 47°21' W 002°31'0 0.0
2016-May-22 06:31N 47°21' W 002°31'0 0.0
2016-May-22 05:33N 47°21' W 002°31'0 0.0
2016-May-22 04:33N 47°21' W 002°31'0 0.0
2016-May-22 03:33N 47°21' W 002°31'0 0.0
2016-May-22 02:33N 47°21' W 002°31'0 0.0
2016-May-22 01:33N 47°21' W 002°31'0 0.0
2016-May-22 00:33N 47°21' W 002°31'0 0.0
2016-May-21 23:33N 47°21' W 002°31'0 0.0
2016-May-21 22:33N 47°21' W 002°31'0 0.0
2016-May-21 21:33N 47°21' W 002°31'0 0.0
2016-May-21 20:33N 47°21' W 002°31'0 0.0
2016-May-21 19:33N 47°21' W 002°31'0 0.0
2016-May-21 18:33N 47°21' W 002°31'0 0.0
2016-May-21 17:34N 47°21' W 002°31'0 0.0
2016-May-21 16:33N 47°21' W 002°31'0 0.0
2016-May-21 15:33N 47°21' W 002°31'0 0.0
2016-May-21 14:33N 47°21' W 002°31'0 0.0
2016-May-21 13:33N 47°21' W 002°31'0 0.0
2016-May-21 12:33N 47°21' W 002°31'0 0.0
2016-May-21 11:33N 47°21' W 002°31'0 0.0
2016-May-21 10:33N 47°21' W 002°31'0 0.0
2016-May-21 09:33N 47°21' W 002°31'0 0.0
2016-May-21 08:33N 47°21' W 002°31'0 0.0
2016-May-21 07:33N 47°21' W 002°31'0 0.0
2016-May-21 06:33N 47°21' W 002°31'0 0.0
2016-May-21 05:33N 47°21' W 002°31'0 0.0
2016-May-21 04:33N 47°21' W 002°31'0 0.0
2016-May-21 03:33N 47°21' W 002°31'0 0.0
2016-May-21 02:33N 47°21' W 002°31'0 0.0
2016-May-21 01:33N 47°21' W 002°31'0 0.0
2016-May-21 00:33N 47°21' W 002°31'0 0.0
2016-May-20 23:33N 47°21' W 002°31'0 0.0
2016-May-20 22:33N 47°21' W 002°31'0 0.0
2016-May-20 21:33N 47°21' W 002°31'0 0.0
2016-May-20 20:33N 47°21' W 002°31'0 0.0
2016-May-20 19:33N 47°21' W 002°31'0 0.0
2016-May-20 18:33N 47°21' W 002°31'0 0.0
2016-May-20 17:33N 47°21' W 002°31'0 0.0
2016-May-20 16:33N 47°21' W 002°31'0 0.0
2016-May-20 15:33N 47°21' W 002°31'0 0.0
2016-May-20 14:33N 47°21' W 002°31'0 0.0
2016-May-20 13:34N 47°21' W 002°31'0 0.0
2016-May-20 12:34N 47°21' W 002°31'0 0.0
2016-May-20 11:33N 47°21' W 002°31'0 0.0
2016-May-20 10:33N 47°21' W 002°31'0 0.0
2016-May-20 09:33N 47°21' W 002°31'0 0.0
2016-May-20 08:33N 47°21' W 002°31'0 0.0
2016-May-20 07:33N 47°21' W 002°31'0 0.0
2016-May-20 06:33N 47°21' W 002°31'0 0.0
2016-May-20 05:32N 47°21' W 002°31'0 0.0
2016-May-20 04:33N 47°21' W 002°31'0 0.0
2016-May-20 03:33N 47°21' W 002°31'0 0.0
2016-May-20 02:33N 47°21' W 002°31'0 0.0
2016-May-20 01:33N 47°21' W 002°31'0 0.0
2016-May-20 00:33N 47°21' W 002°31'0 0.0
2016-May-19 23:34N 47°21' W 002°31'0 0.0
2016-May-19 22:33N 47°21' W 002°31'0 0.0
2016-May-19 21:33N 47°21' W 002°31'0 0.0
2016-May-19 20:33N 47°21' W 002°31'0 0.0
2016-May-19 19:33N 47°21' W 002°31'0 0.0
2016-May-19 18:33N 47°21' W 002°31'0 0.0
2016-May-19 17:32N 47°21' W 002°31'0 0.0
2016-May-19 16:33N 47°21' W 002°31'0 0.0
2016-May-19 15:33N 47°21' W 002°31'0 0.0
2016-May-19 14:33N 47°21' W 002°31'0 0.0
2016-May-19 13:33N 47°21' W 002°31'0 0.0
2016-May-19 12:33N 47°21' W 002°31'0 0.0
2016-May-19 11:33N 47°21' W 002°31'0 0.0
2016-May-19 10:33N 47°21' W 002°31'0 0.0
2016-May-19 09:33N 47°21' W 002°31'0 0.0
2016-May-19 08:22N 47°21' W 002°31'0 0.0
2016-May-19 07:32N 47°21' W 002°31'0 0.0
2016-May-19 06:33N 47°21' W 002°31'0 0.0
2016-May-19 05:33N 47°21' W 002°31'0 0.0
2016-May-19 04:33N 47°21' W 002°31'0 0.0
2016-May-19 03:33N 47°21' W 002°31'0 0.0
2016-May-19 02:33N 47°21' W 002°31'0 0.0
2016-May-19 01:33N 47°21' W 002°31'0 0.0
2016-May-19 00:33N 47°21' W 002°31'0 0.0
2016-May-18 23:33N 47°21' W 002°31'0 0.0
2016-May-18 22:33N 47°21' W 002°31'0 0.0
2016-May-18 21:34N 47°21' W 002°31'0 0.0
2016-May-18 20:33N 47°21' W 002°31'0 0.0
2016-May-18 19:21N 47°21' W 002°31'0 0.0
2016-May-18 18:32N 47°21' W 002°31'0 0.0
2016-May-18 17:33N 47°21' W 002°31'0 0.0
2016-May-18 16:33N 47°21' W 002°31'0 0.0
2016-May-18 15:33N 47°21' W 002°31'0 0.0
2016-May-18 14:33N 47°21' W 002°31'0 0.0
2016-May-18 13:33N 47°21' W 002°31'0 0.0
2016-May-18 12:33N 47°21' W 002°31'0 0.0
2016-May-18 11:33N 47°21' W 002°31'0 0.0
2016-May-18 10:33N 47°21' W 002°31'0 0.0
2016-May-18 09:33N 47°21' W 002°31'0 0.0
2016-May-18 08:33N 47°21' W 002°31'0 0.0
2016-May-18 07:33N 47°21' W 002°31'0 0.0
2016-May-18 06:33N 47°21' W 002°31'0 0.0
2016-May-18 05:34N 47°21' W 002°31'0 0.0
2016-May-18 04:33N 47°21' W 002°31'0 0.0
2016-May-18 03:33N 47°21' W 002°31'0 0.0
2016-May-18 02:33N 47°21' W 002°31'0 0.0
2016-May-18 01:33N 47°21' W 002°31'0 0.0
2016-May-18 00:33N 47°21' W 002°31'0 0.0
2016-May-17 23:33N 47°21' W 002°31'0 0.0
2016-May-17 22:33N 47°21' W 002°31'1 0.8
2016-May-17 21:33N 47°20' W 002°32'1 0.7
2016-May-17 20:33N 47°21' W 002°31'0 0.0
2016-May-17 19:33N 47°21' W 002°31'3 3.2
2016-May-17 18:33N 47°20' W 002°35'8 8.5
2016-May-17 17:33N 47°18' W 002°48'8 8.5
2016-May-17 16:33N 47°20' W 002°60'9 9.2
2016-May-17 15:33N 47°24' W 003°12'9 9.1
2016-May-17 14:34N 47°26' W 003°25'9 9.2
2016-May-17 13:33N 47°27' W 003°39'11 9.6
2016-May-17 12:27N 47°28' W 003°54'  
Track history (hours):
 
Tides and Currents Weather Stations Pressure Air Temp Water Temp Dewpoint Dewpoint Depression Visibility Wind Speed Wind Dir Waves Ship Positions

F/V Mailys Charlie

Last reported at 2016-May-25 15:33 UTC. Time now 2016-May-26 04:47 UTC.
Position N 47°45' W 004°03'.

Length 19 m.

Type: Fishing. MMSI: 228240800.

Date/timePositionNaut miles runAvg speedWind from/ knotsBaromVisibWave heightAir tempDewpointWater temp
2016-May-25 15:33N 47°45' W 004°03'8 7.9
2016-May-25 14:33N 47°51' W 003°56'1 0.2
2016-May-25 11:16N 47°51' W 003°56'36 0.8
2016-May-23 13:04N 47°15' W 003°49'5 7.8
2016-May-23 12:29N 47°15' W 003°43'7 7.7
2016-May-23 11:33N 47°15' W 003°32'8 7.9
2016-May-23 10:34N 47°15' W 003°20'8 8.3
2016-May-23 09:33N 47°15' W 003°08'9 8.7
2016-May-23 08:33N 47°17' W 002°56'9 8.6
2016-May-23 07:34N 47°19' W 002°43'8 8.2
2016-May-23 06:33N 47°20' W 002°31'1 0.6
2016-May-23 05:33N 47°21' W 002°31'0 0.0
2016-May-23 04:33N 47°21' W 002°31'0 0.0
2016-May-23 03:33N 47°21' W 002°31'0 0.0
2016-May-23 02:33N 47°21' W 002°31'0 0.0
2016-May-23 01:34N 47°21' W 002°31'0 0.0
2016-May-23 00:33N 47°21' W 002°31'0 0.0
2016-May-22 23:33N 47°21' W 002°31'0 0.0
2016-May-22 22:33N 47°21' W 002°31'0 0.0
2016-May-22 21:33N 47°21' W 002°31'0 0.0
2016-May-22 20:33N 47°21' W 002°31'0 0.0
2016-May-22 19:33N 47°21' W 002°31'0 0.0
2016-May-22 18:33N 47°21' W 002°31'0 0.0
2016-May-22 17:33N 47°21' W 002°31'0 0.0
2016-May-22 16:33N 47°21' W 002°31'0 0.0
2016-May-22 15:33N 47°21' W 002°31'0 0.0
2016-May-22 14:33N 47°21' W 002°31'0 0.0
2016-May-22 13:33N 47°21' W 002°31'0 0.0
2016-May-22 12:33N 47°21' W 002°31'0 0.0
2016-May-22 11:34N 47°21' W 002°31'0 0.0
2016-May-22 10:33N 47°21' W 002°31'0 0.0
2016-May-22 09:33N 47°21' W 002°31'0 0.0
2016-May-22 08:33N 47°21' W 002°31'0 0.0
2016-May-22 07:27N 47°21' W 002°31'0 0.0
2016-May-22 06:31N 47°21' W 002°31'0 0.0
2016-May-22 05:33N 47°21' W 002°31'0 0.0
2016-May-22 04:33N 47°21' W 002°31'0 0.0
2016-May-22 03:33N 47°21' W 002°31'0 0.0
2016-May-22 02:33N 47°21' W 002°31'0 0.0
2016-May-22 01:33N 47°21' W 002°31'0 0.0
2016-May-22 00:33N 47°21' W 002°31'0 0.0
2016-May-21 23:33N 47°21' W 002°31'0 0.0
2016-May-21 22:33N 47°21' W 002°31'0 0.0
2016-May-21 21:33N 47°21' W 002°31'0 0.0
2016-May-21 20:33N 47°21' W 002°31'0 0.0
2016-May-21 19:33N 47°21' W 002°31'0 0.0
2016-May-21 18:33N 47°21' W 002°31'0 0.0
2016-May-21 17:34N 47°21' W 002°31'0 0.0
2016-May-21 16:33N 47°21' W 002°31'0 0.0
2016-May-21 15:33N 47°21' W 002°31'0 0.0
2016-May-21 14:33N 47°21' W 002°31'0 0.0
2016-May-21 13:33N 47°21' W 002°31'0 0.0
2016-May-21 12:33N 47°21' W 002°31'0 0.0
2016-May-21 11:33N 47°21' W 002°31'0 0.0
2016-May-21 10:33N 47°21' W 002°31'0 0.0
2016-May-21 09:33N 47°21' W 002°31'0 0.0
2016-May-21 08:33N 47°21' W 002°31'0 0.0
2016-May-21 07:33N 47°21' W 002°31'0 0.0
2016-May-21 06:33N 47°21' W 002°31'0 0.0
2016-May-21 05:33N 47°21' W 002°31'0 0.0
2016-May-21 04:33N 47°21' W 002°31'0 0.0
2016-May-21 03:33N 47°21' W 002°31'0 0.0
2016-May-21 02:33N 47°21' W 002°31'0 0.0
2016-May-21 01:33N 47°21' W 002°31'0 0.0
2016-May-21 00:33N 47°21' W 002°31'0 0.0
2016-May-20 23:33N 47°21' W 002°31'0 0.0
2016-May-20 22:33N 47°21' W 002°31'0 0.0
2016-May-20 21:33N 47°21' W 002°31'0 0.0
2016-May-20 20:33N 47°21' W 002°31'0 0.0
2016-May-20 19:33N 47°21' W 002°31'0 0.0
2016-May-20 18:33N 47°21' W 002°31'0 0.0
2016-May-20 17:33N 47°21' W 002°31'0 0.0
2016-May-20 16:33N 47°21' W 002°31'0 0.0
2016-May-20 15:33N 47°21' W 002°31'0 0.0
2016-May-20 14:33N 47°21' W 002°31'0 0.0
2016-May-20 13:34N 47°21' W 002°31'0 0.0
2016-May-20 12:34N 47°21' W 002°31'0 0.0
2016-May-20 11:33N 47°21' W 002°31'0 0.0
2016-May-20 10:33N 47°21' W 002°31'0 0.0
2016-May-20 09:33N 47°21' W 002°31'0 0.0
2016-May-20 08:33N 47°21' W 002°31'0 0.0
2016-May-20 07:33N 47°21' W 002°31'0 0.0
2016-May-20 06:33N 47°21' W 002°31'0 0.0
2016-May-20 05:32N 47°21' W 002°31'0 0.0
2016-May-20 04:33N 47°21' W 002°31'0 0.0
2016-May-20 03:33N 47°21' W 002°31'0 0.0
2016-May-20 02:33N 47°21' W 002°31'0 0.0
2016-May-20 01:33N 47°21' W 002°31'0 0.0
2016-May-20 00:33N 47°21' W 002°31'0 0.0
2016-May-19 23:34N 47°21' W 002°31'0 0.0
2016-May-19 22:33N 47°21' W 002°31'0 0.0
2016-May-19 21:33N 47°21' W 002°31'0 0.0
2016-May-19 20:33N 47°21' W 002°31'0 0.0
2016-May-19 19:33N 47°21' W 002°31'0 0.0
2016-May-19 18:33N 47°21' W 002°31'0 0.0
2016-May-19 17:32N 47°21' W 002°31'0 0.0
2016-May-19 16:33N 47°21' W 002°31'0 0.0
2016-May-19 15:33N 47°21' W 002°31'0 0.0
2016-May-19 14:33N 47°21' W 002°31'0 0.0
2016-May-19 13:33N 47°21' W 002°31'0 0.0
2016-May-19 12:33N 47°21' W 002°31'0 0.0
2016-May-19 11:33N 47°21' W 002°31'0 0.0
2016-May-19 10:33N 47°21' W 002°31'0 0.0
2016-May-19 09:33N 47°21' W 002°31'0 0.0
2016-May-19 08:22N 47°21' W 002°31'0 0.0
2016-May-19 07:32N 47°21' W 002°31'0 0.0
2016-May-19 06:33N 47°21' W 002°31'0 0.0
2016-May-19 05:33N 47°21' W 002°31'0 0.0
2016-May-19 04:33N 47°21' W 002°31'0 0.0
2016-May-19 03:33N 47°21' W 002°31'0 0.0
2016-May-19 02:33N 47°21' W 002°31'0 0.0
2016-May-19 01:33N 47°21' W 002°31'0 0.0
2016-May-19 00:33N 47°21' W 002°31'0 0.0
2016-May-18 23:33N 47°21' W 002°31'0 0.0
2016-May-18 22:33N 47°21' W 002°31'0 0.0
2016-May-18 21:34N 47°21' W 002°31'0 0.0
2016-May-18 20:33N 47°21' W 002°31'0 0.0
2016-May-18 19:21N 47°21' W 002°31'0 0.0
2016-May-18 18:32N 47°21' W 002°31'0 0.0
2016-May-18 17:33N 47°21' W 002°31'0 0.0
2016-May-18 16:33N 47°21' W 002°31'0 0.0
2016-May-18 15:33N 47°21' W 002°31'0 0.0
2016-May-18 14:33N 47°21' W 002°31'0 0.0
2016-May-18 13:33N 47°21' W 002°31'0 0.0
2016-May-18 12:33N 47°21' W 002°31'0 0.0
2016-May-18 11:33N 47°21' W 002°31'0 0.0
2016-May-18 10:33N 47°21' W 002°31'0 0.0
2016-May-18 09:33N 47°21' W 002°31'0 0.0
2016-May-18 08:33N 47°21' W 002°31'0 0.0
2016-May-18 07:33N 47°21' W 002°31'0 0.0
2016-May-18 06:33N 47°21' W 002°31'0 0.0
2016-May-18 05:34N 47°21' W 002°31'0 0.0
2016-May-18 04:33N 47°21' W 002°31'0 0.0
2016-May-18 03:33N 47°21' W 002°31'0 0.0
2016-May-18 02:33N 47°21' W 002°31'0 0.0
2016-May-18 01:33N 47°21' W 002°31'0 0.0
2016-May-18 00:33N 47°21' W 002°31'0 0.0
2016-May-17 23:33N 47°21' W 002°31'0 0.0
2016-May-17 22:33N 47°21' W 002°31'1 0.8
2016-May-17 21:33N 47°20' W 002°32'1 0.7
2016-May-17 20:33N 47°21' W 002°31'0 0.0
2016-May-17 19:33N 47°21' W 002°31'3 3.2
2016-May-17 18:33N 47°20' W 002°35'8 8.5
2016-May-17 17:33N 47°18' W 002°48'8 8.5
2016-May-17 16:33N 47°20' W 002°60'9 9.2
2016-May-17 15:33N 47°24' W 003°12'9 9.1
2016-May-17 14:34N 47°26' W 003°25'9 9.2
2016-May-17 13:33N 47°27' W 003°39'11 9.6
2016-May-17 12:27N 47°28' W 003°54'  

Dump ship's entire track history